createdAt,value
2022-12-26T00:01:09.394Z,7.63
2022-12-26T00:03:37.054Z,9.20
2022-12-26T00:06:05.471Z,8.13
2022-12-26T00:08:32.860Z,8.30
2022-12-26T00:11:01.587Z,9.00
2022-12-26T00:13:39.305Z,8.40
2022-12-26T00:16:10.488Z,7.53
2022-12-26T00:18:38.157Z,7.30
2022-12-26T00:21:05.874Z,7.90
2022-12-26T00:23:33.701Z,8.10
2022-12-26T00:26:05.099Z,8.33
2022-12-26T00:28:32.763Z,8.10
2022-12-26T00:31:03.729Z,8.40
2022-12-26T00:33:31.213Z,7.60
2022-12-26T00:36:02.040Z,8.43
2022-12-26T00:38:29.445Z,8.57
2022-12-26T00:40:56.886Z,7.43
2022-12-26T00:43:25.616Z,7.70
2022-12-26T00:45:53.247Z,7.97
2022-12-26T00:48:20.643Z,7.83
2022-12-26T00:50:48.050Z,8.00
2022-12-26T00:53:15.452Z,7.13
2022-12-26T00:55:43.063Z,7.30
2022-12-26T00:58:10.626Z,7.47
2022-12-26T01:00:39.744Z,7.77
2022-12-26T01:03:08.749Z,6.57
2022-12-26T01:05:36.443Z,6.73
2022-12-26T01:08:21.526Z,7.20
2022-12-26T01:10:51.522Z,6.83
2022-12-26T01:13:18.955Z,6.97
2022-12-26T01:15:50.965Z,6.47
2022-12-26T01:18:19.049Z,7.47
2022-12-26T01:20:46.598Z,6.47
2022-12-26T01:23:14.367Z,6.50
2022-12-26T01:26:17.406Z,6.20
2022-12-26T01:28:29.327Z,6.33
2022-12-26T01:31:02.402Z,6.83
2022-12-26T01:33:29.816Z,5.77
2022-12-26T01:35:57.652Z,6.00
2022-12-26T01:38:25.098Z,7.83
2022-12-26T01:41:12.544Z,6.37
2022-12-26T01:43:49.341Z,6.33
2022-12-26T01:46:20.587Z,6.03
2022-12-26T01:48:48.580Z,6.33
2022-12-26T01:51:17.490Z,5.77
2022-12-26T01:53:48.929Z,6.00
2022-12-26T01:56:21.121Z,6.20
2022-12-26T01:58:53.997Z,5.47
2022-12-26T02:01:26.555Z,6.27
2022-12-26T02:04:11.813Z,4.97
2022-12-26T02:06:41.253Z,5.40
2022-12-26T02:09:10.140Z,5.93
2022-12-26T02:11:41.067Z,5.30
2022-12-26T02:14:09.839Z,6.07
2022-12-26T02:16:40.044Z,5.50
2022-12-26T02:19:24.605Z,5.17
2022-12-26T02:22:09.556Z,6.00
2022-12-26T02:25:02.912Z,5.43
2022-12-26T02:27:44.633Z,6.10
2022-12-26T02:30:40.099Z,5.90
2022-12-26T02:33:30.537Z,5.87
2022-12-26T02:36:18.177Z,5.57
2022-12-26T02:38:54.525Z,5.97
2022-12-26T02:41:34.791Z,5.90
2022-12-26T02:44:32.229Z,5.37
2022-12-26T02:47:11.409Z,5.20
2022-12-26T02:50:10.875Z,5.97
2022-12-26T02:53:07.314Z,5.87
2022-12-26T02:55:57.061Z,5.83
2022-12-26T02:58:48.794Z,6.10
2022-12-26T03:01:41.140Z,6.23
2022-12-26T03:04:32.826Z,5.90
2022-12-26T03:07:22.494Z,6.20
2022-12-26T03:10:22.166Z,5.20
2022-12-26T03:13:13.573Z,5.30
2022-12-26T03:16:04.948Z,6.07
2022-12-26T03:18:59.526Z,5.40
2022-12-26T03:21:27.243Z,6.27
2022-12-26T03:23:57.555Z,5.53
2022-12-26T03:26:41.408Z,5.70
2022-12-26T03:29:29.006Z,5.40
2022-12-26T03:31:56.881Z,5.30
2022-12-26T03:34:25.322Z,5.43
2022-12-26T03:37:07.069Z,5.37
2022-12-26T03:40:01.151Z,5.70
2022-12-26T03:42:56.135Z,5.60
2022-12-26T03:45:50.697Z,5.50
2022-12-26T03:48:42.949Z,6.00
2022-12-26T03:51:32.343Z,5.47
2022-12-26T03:54:26.055Z,5.50
2022-12-26T03:57:13.946Z,5.47
2022-12-26T04:00:05.158Z,4.87
2022-12-26T04:02:51.883Z,4.83
2022-12-26T04:05:38.736Z,5.47
2022-12-26T04:08:32.118Z,4.87
2022-12-26T04:11:21.914Z,5.13
2022-12-26T04:14:12.842Z,5.53
2022-12-26T04:17:01.724Z,4.73
2022-12-26T04:19:45.389Z,4.37
2022-12-26T04:22:36.156Z,4.70
2022-12-26T04:25:48.580Z,4.17
2022-12-26T04:28:35.090Z,4.50
2022-12-26T04:31:26.662Z,4.73
2022-12-26T04:34:17.246Z,4.53
2022-12-26T04:37:08.029Z,5.00
2022-12-26T04:39:55.471Z,4.60
2022-12-26T04:42:42.693Z,4.47
2022-12-26T04:45:14.204Z,4.73
2022-12-26T04:48:01.893Z,4.70
2022-12-26T04:50:28.449Z,5.50
2022-12-26T04:52:58.678Z,5.57
2022-12-26T04:55:27.079Z,4.60
2022-12-26T04:57:54.595Z,4.80
2022-12-26T05:00:25.188Z,4.43
2022-12-26T05:03:16.270Z,4.60
2022-12-26T05:06:06.022Z,4.63
2022-12-26T05:08:54.331Z,4.67
2022-12-26T05:11:22.069Z,5.07
2022-12-26T05:13:49.586Z,4.37
2022-12-26T05:16:35.970Z,4.87
2022-12-26T05:19:21.234Z,4.80
2022-12-26T05:22:06.469Z,4.57
2022-12-26T05:24:53.676Z,4.40
2022-12-26T05:27:39.430Z,4.77
2022-12-26T05:30:08.526Z,4.77
2022-12-26T05:32:55.031Z,4.43
2022-12-26T05:35:22.600Z,4.63
2022-12-26T05:37:50.071Z,4.07
2022-12-26T05:40:17.567Z,4.47
2022-12-26T05:42:47.139Z,4.28
2022-12-26T05:45:14.590Z,3.70
2022-12-26T05:47:48.271Z,4.03
2022-12-26T05:50:18.991Z,4.67
2022-12-26T05:52:46.463Z,3.90
2022-12-26T05:55:13.888Z,4.40
2022-12-26T05:57:41.293Z,4.50
2022-12-26T06:00:14.154Z,4.50
2022-12-26T06:02:43.062Z,4.07
2022-12-26T06:05:11.121Z,3.83
2022-12-26T06:07:38.738Z,4.27
2022-12-26T06:10:07.340Z,4.30
2022-12-26T06:12:35.353Z,4.07
2022-12-26T06:15:02.980Z,4.27
2022-12-26T06:17:30.480Z,4.13
2022-12-26T06:19:59.233Z,4.17
2022-12-26T06:22:26.706Z,4.50
2022-12-26T06:24:54.118Z,4.53
2022-12-26T06:27:21.570Z,4.47
2022-12-26T06:29:48.965Z,5.10
2022-12-26T06:32:16.349Z,4.60
2022-12-26T06:34:43.775Z,4.40
2022-12-26T06:37:12.641Z,4.33
2022-12-26T06:39:40.073Z,4.03
2022-12-26T06:42:07.579Z,4.23
2022-12-26T06:44:34.985Z,3.93
2022-12-26T06:47:03.137Z,4.67
2022-12-26T06:49:32.717Z,4.80
2022-12-26T06:52:00.741Z,3.90
2022-12-26T06:54:29.450Z,4.30
2022-12-26T06:56:56.930Z,4.30
2022-12-26T06:59:24.431Z,4.23
2022-12-26T07:01:51.980Z,3.83
2022-12-26T07:04:19.484Z,3.83
2022-12-26T07:06:46.887Z,4.87
2022-12-26T07:09:16.975Z,3.80
2022-12-26T07:11:47.815Z,4.00
2022-12-26T07:14:16.105Z,4.50
2022-12-26T07:16:45.729Z,4.27
2022-12-26T07:19:14.959Z,3.97
2022-12-26T07:21:43.112Z,3.90
2022-12-26T07:24:15.731Z,4.10
2022-12-26T07:26:43.541Z,3.83
2022-12-26T07:29:12.858Z,4.20
2022-12-26T07:31:40.759Z,4.07
2022-12-26T07:34:09.016Z,4.60
2022-12-26T07:36:36.510Z,5.17
2022-12-26T07:39:04.335Z,4.90
2022-12-26T07:41:49.408Z,4.67
2022-12-26T07:44:18.203Z,4.23
2022-12-26T07:46:46.531Z,4.60
2022-12-26T07:49:14.461Z,4.37
2022-12-26T07:51:42.193Z,4.30
2022-12-26T07:54:11.556Z,4.03
2022-12-26T07:56:39.421Z,3.83
2022-12-26T07:59:06.892Z,4.80
2022-12-26T08:01:35.727Z,3.80
2022-12-26T08:04:03.388Z,4.30
2022-12-26T08:06:30.895Z,4.27
2022-12-26T08:08:58.291Z,4.30
2022-12-26T08:11:26.012Z,4.20
2022-12-26T08:13:53.698Z,4.40
2022-12-26T08:16:21.949Z,4.50
2022-12-26T08:18:50.756Z,4.63
2022-12-26T08:21:18.193Z,3.97
2022-12-26T08:23:48.056Z,3.83
2022-12-26T08:26:20.804Z,3.63
2022-12-26T08:28:48.433Z,4.03
2022-12-26T08:31:16.224Z,4.17
2022-12-26T08:33:43.625Z,3.93
2022-12-26T08:36:13.769Z,3.70
2022-12-26T08:38:41.581Z,3.93
2022-12-26T08:41:09.298Z,3.30
2022-12-26T08:46:24.925Z,3.70
2022-12-26T08:48:52.816Z,3.30
2022-12-26T08:51:23.691Z,2.93
2022-12-26T08:53:52.383Z,3.13
2022-12-26T08:56:22.188Z,3.17
2022-12-26T08:58:49.858Z,3.20
2022-12-26T09:01:19.445Z,3.47
2022-12-26T09:03:47.393Z,3.13
2022-12-26T09:06:16.199Z,2.57
2022-12-26T09:08:44.988Z,3.10
2022-12-26T09:11:15.719Z,3.03
2022-12-26T09:13:44.191Z,3.00
2022-12-26T09:16:15.548Z,3.30
2022-12-26T09:18:43.039Z,3.40
2022-12-26T09:21:12.613Z,3.30
2022-12-26T09:23:41.036Z,3.10
2022-12-26T09:26:12.760Z,2.93
2022-12-26T09:28:40.823Z,3.20
2022-12-26T09:31:11.628Z,3.30
2022-12-26T09:33:39.872Z,3.47
2022-12-26T09:36:14.291Z,3.40
2022-12-26T09:38:42.601Z,3.80
2022-12-26T09:41:26.008Z,3.83
2022-12-26T09:44:04.567Z,3.47
2022-12-26T09:46:35.835Z,4.00
2022-12-26T09:49:11.308Z,3.80
2022-12-26T09:51:41.061Z,3.50
2022-12-26T09:54:16.265Z,4.00
2022-12-26T09:57:03.507Z,3.67
2022-12-26T09:59:35.395Z,3.77
2022-12-26T10:02:02.981Z,3.30
2022-12-26T10:04:30.882Z,4.00
2022-12-26T10:07:08.207Z,3.17
2022-12-26T10:10:01.039Z,3.57
2022-12-26T10:12:43.584Z,3.43
2022-12-26T10:15:32.092Z,3.30
2022-12-26T10:18:12.363Z,3.37
2022-12-26T10:20:52.974Z,3.13
2022-12-26T10:23:33.093Z,3.20
2022-12-26T10:26:07.093Z,3.17
2022-12-26T10:28:40.232Z,3.20
2022-12-26T10:31:14.482Z,3.30
2022-12-26T10:33:47.145Z,2.87
2022-12-26T10:36:22.183Z,3.03
2022-12-26T10:38:51.905Z,3.33
2022-12-26T10:41:25.214Z,3.03
2022-12-26T10:43:54.268Z,2.80
2022-12-26T10:46:48.131Z,2.87
2022-12-26T10:49:19.413Z,3.03
2022-12-26T10:51:46.894Z,2.77
2022-12-26T10:54:18.040Z,2.73
2022-12-26T10:56:48.336Z,2.70
2022-12-26T10:59:19.960Z,2.60
2022-12-26T11:01:50.903Z,2.70
2022-12-26T11:04:44.563Z,2.53
2022-12-26T11:07:12.314Z,2.50
2022-12-26T11:09:42.657Z,2.57
2022-12-26T11:12:21.560Z,2.20
2022-12-26T11:14:51.408Z,2.80
2022-12-26T11:17:27.950Z,2.57
2022-12-26T11:20:22.387Z,2.40
2022-12-26T11:22:49.913Z,2.30
2022-12-26T11:25:20.934Z,2.47
2022-12-26T11:27:50.083Z,2.50
2022-12-26T11:30:25.315Z,3.93
2022-12-26T11:33:13.511Z,3.30
2022-12-26T11:35:49.599Z,2.40
2022-12-26T11:38:37.328Z,2.87
2022-12-26T11:41:30.163Z,2.80
2022-12-26T11:43:59.800Z,2.37
2022-12-26T11:46:36.520Z,2.60
2022-12-26T11:49:05.369Z,2.80
2022-12-26T11:51:35.600Z,2.70
2022-12-26T11:54:24.345Z,3.00
2022-12-26T11:57:02.878Z,2.60
2022-12-26T11:59:30.675Z,2.80
2022-12-26T12:02:22.196Z,2.57
2022-12-26T12:04:51.674Z,3.30
2022-12-26T12:07:32.991Z,3.47
2022-12-26T12:10:04.320Z,2.87
2022-12-26T12:12:42.237Z,2.80
2022-12-26T12:15:17.321Z,2.80
2022-12-26T12:18:03.568Z,3.00
2022-12-26T12:20:38.734Z,3.23
2022-12-26T12:23:20.760Z,3.87
2022-12-26T12:26:03.141Z,2.90
2022-12-26T12:28:59.202Z,3.60
2022-12-26T12:31:39.576Z,4.13
2022-12-26T12:34:20.727Z,3.60
2022-12-26T12:37:02.400Z,4.53
2022-12-26T12:39:45.612Z,4.00
2022-12-26T12:42:29.615Z,3.57
2022-12-26T12:45:18.047Z,4.40
2022-12-26T12:47:54.507Z,4.43
2022-12-26T12:50:29.578Z,4.17
2022-12-26T12:53:06.476Z,4.50
2022-12-26T12:55:44.571Z,3.63
2022-12-26T12:58:23.641Z,3.20
2022-12-26T13:00:56.087Z,3.87
2022-12-26T13:03:29.242Z,4.03
2022-12-26T13:06:07.473Z,4.40
2022-12-26T13:08:41.385Z,3.73
2022-12-26T13:11:14.639Z,4.13
2022-12-26T13:13:53.228Z,4.20
2022-12-26T13:16:28.218Z,3.60
2022-12-26T13:18:59.776Z,5.40
2022-12-26T13:21:32.093Z,3.73
2022-12-26T13:24:22.657Z,3.60
2022-12-26T13:26:55.542Z,4.50
2022-12-26T13:29:34.634Z,4.13
2022-12-26T13:32:04.468Z,4.20
2022-12-26T13:34:32.736Z,3.37
2022-12-26T13:37:01.915Z,3.70
2022-12-26T13:39:41.302Z,3.60
2022-12-26T13:42:51.138Z,3.37
2022-12-26T13:45:50.398Z,3.80
2022-12-26T13:48:56.990Z,4.17
2022-12-26T13:51:53.415Z,4.17
2022-12-26T13:54:24.388Z,4.27
2022-12-26T13:57:07.582Z,3.90
2022-12-26T13:59:40.981Z,4.30
2022-12-26T14:03:16.114Z,3.63
2022-12-26T14:05:37.124Z,4.63
2022-12-26T14:08:11.876Z,4.47
2022-12-26T14:10:54.387Z,4.70
2022-12-26T14:13:38.105Z,4.60
2022-12-26T14:16:15.284Z,4.90
2022-12-26T14:18:50.951Z,4.17
2022-12-26T14:21:34.281Z,4.70
2022-12-26T14:24:18.055Z,4.27
2022-12-26T14:26:52.838Z,4.10
2022-12-26T14:29:29.175Z,4.53
2022-12-26T14:32:11.707Z,4.87
2022-12-26T14:35:02.660Z,4.50
2022-12-26T14:37:42.412Z,4.60
2022-12-26T14:40:25.837Z,4.87
2022-12-26T14:43:11.314Z,4.67
2022-12-26T14:45:42.819Z,4.40
2022-12-26T14:48:43.700Z,4.40
2022-12-26T14:51:40.188Z,4.33
2022-12-26T14:54:26.106Z,4.00
2022-12-26T14:56:54.116Z,4.70
2022-12-26T14:59:29.926Z,4.40
2022-12-26T15:02:31.196Z,3.93
2022-12-26T15:05:11.576Z,3.83
2022-12-26T15:08:10.838Z,4.20
2022-12-26T15:11:19.529Z,4.00
2022-12-26T15:14:13.097Z,4.20
2022-12-26T15:16:57.969Z,3.97
2022-12-26T15:19:46.699Z,4.33
2022-12-26T15:22:55.410Z,4.43
2022-12-26T15:25:55.654Z,3.83
2022-12-26T15:28:41.476Z,3.90
2022-12-26T15:31:25.954Z,4.50
2022-12-26T15:34:03.518Z,3.90
2022-12-26T15:36:43.179Z,4.10
2022-12-26T15:39:22.588Z,3.70
2022-12-26T15:41:58.442Z,4.17
2022-12-26T15:44:31.571Z,3.60
2022-12-26T15:47:15.056Z,4.07
2022-12-26T15:49:57.395Z,3.70
2022-12-26T15:52:37.909Z,5.07
2022-12-26T15:55:21.844Z,4.03
2022-12-26T15:57:56.610Z,4.23
2022-12-26T16:00:25.542Z,3.90
2022-12-26T16:03:11.538Z,4.00
2022-12-26T16:05:53.703Z,4.03
2022-12-26T16:08:51.633Z,4.70
2022-12-26T16:11:21.734Z,4.20
2022-12-26T16:14:01.053Z,6.17
2022-12-26T16:16:34.662Z,4.60
2022-12-26T16:19:19.313Z,5.03
2022-12-26T16:22:09.658Z,4.27
2022-12-26T16:24:39.529Z,4.67
2022-12-26T16:27:09.702Z,6.27
2022-12-26T16:29:45.787Z,5.03
2022-12-26T16:32:18.977Z,3.77
2022-12-26T16:34:47.630Z,4.43
2022-12-26T16:37:20.646Z,3.60
2022-12-26T16:40:07.396Z,3.57
2022-12-26T16:42:35.371Z,3.60
2022-12-26T16:45:03.569Z,3.60
2022-12-26T16:47:33.603Z,2.97
2022-12-26T16:50:01.371Z,3.70
2022-12-26T16:52:34.461Z,4.93
2022-12-26T16:55:25.971Z,3.23
2022-12-26T16:57:56.480Z,2.57
2022-12-26T17:00:25.139Z,2.13
2022-12-26T17:02:55.861Z,2.17
2022-12-26T17:05:27.943Z,2.07
2022-12-26T17:07:59.347Z,2.43
2022-12-26T17:10:29.660Z,1.67
2022-12-26T17:13:00.577Z,1.90
2022-12-26T17:15:30.756Z,2.30
2022-12-26T17:17:59.790Z,1.80
2022-12-26T17:20:38.955Z,2.10
2022-12-26T17:23:37.097Z,1.80
2022-12-26T17:26:23.676Z,1.40
2022-12-26T17:28:51.666Z,1.50
2022-12-26T17:31:24.775Z,1.60
2022-12-26T17:33:56.078Z,1.43
2022-12-26T17:39:22.181Z,1.53
2022-12-26T17:41:55.630Z,1.67
2022-12-26T17:44:40.985Z,1.60
2022-12-26T17:47:17.840Z,1.50
2022-12-26T17:49:45.362Z,3.43
2022-12-26T17:52:14.841Z,1.70
2022-12-26T17:54:43.643Z,1.40
2022-12-26T17:57:18.709Z,1.63
2022-12-26T17:59:46.328Z,1.60
2022-12-26T18:02:13.976Z,1.30
2022-12-26T18:04:41.734Z,1.57
2022-12-26T18:07:13.198Z,1.60
2022-12-26T18:09:40.778Z,1.40
2022-12-26T18:12:11.503Z,1.33
2022-12-26T18:14:38.984Z,1.60
2022-12-26T18:17:06.741Z,1.40
2022-12-26T18:19:34.914Z,1.40
2022-12-26T18:22:02.912Z,1.40
2022-12-26T18:24:31.058Z,1.80
2022-12-26T18:26:58.819Z,1.80
2022-12-26T18:29:27.589Z,1.60
2022-12-26T18:31:55.112Z,1.90
2022-12-26T18:34:22.533Z,1.60
2022-12-26T18:36:50.289Z,1.50
2022-12-26T18:39:18.296Z,1.40
2022-12-26T18:41:45.935Z,1.67
2022-12-26T18:44:15.645Z,1.73
2022-12-26T18:46:44.503Z,1.60
2022-12-26T18:49:12.013Z,1.20
2022-12-26T18:51:39.449Z,1.30
2022-12-26T18:54:07.027Z,1.23
2022-12-26T18:56:34.422Z,1.30
2022-12-26T18:59:01.888Z,1.10
2022-12-26T19:01:29.414Z,1.10
2022-12-26T19:03:58.401Z,1.40
2022-12-26T19:06:27.770Z,1.40
2022-12-26T19:08:55.982Z,1.27
2022-12-26T19:11:24.229Z,1.20
2022-12-26T19:13:52.718Z,0.90
2022-12-26T19:16:22.915Z,1.10
2022-12-26T19:18:50.763Z,2.30
2022-12-26T19:21:19.553Z,0.87
2022-12-26T19:23:48.342Z,1.03
2022-12-26T19:26:18.532Z,0.83
2022-12-26T19:28:50.908Z,1.20
2022-12-26T19:31:18.420Z,1.30
2022-12-26T19:33:45.934Z,1.10
2022-12-26T19:36:13.934Z,1.30
2022-12-26T19:38:42.969Z,1.00
2022-12-26T19:41:12.338Z,1.10
2022-12-26T19:43:39.950Z,0.83
2022-12-26T19:46:09.616Z,1.10
2022-12-26T19:48:38.735Z,1.20
2022-12-26T19:51:09.090Z,1.37
2022-12-26T19:53:37.983Z,1.10
2022-12-26T19:56:09.407Z,1.00
2022-12-26T19:58:37.067Z,0.73
2022-12-26T20:01:08.741Z,0.93
2022-12-26T20:03:36.945Z,1.10
2022-12-26T20:06:09.951Z,1.10
2022-12-26T20:11:22.890Z,0.90
2022-12-26T20:13:50.987Z,1.33
2022-12-26T20:17:04.304Z,0.85
2022-12-26T20:19:19.995Z,1.20
2022-12-26T20:21:48.086Z,1.30
2022-12-26T20:24:16.352Z,1.10
2022-12-26T20:26:45.538Z,1.07
2022-12-26T20:29:13.231Z,1.20
2022-12-26T20:31:42.563Z,1.33
2022-12-26T20:34:11.248Z,1.20
2022-12-26T20:36:40.086Z,1.10
2022-12-26T20:39:11.199Z,1.40
2022-12-26T20:41:39.158Z,1.47
2022-12-26T20:44:08.083Z,1.77
2022-12-26T20:46:36.212Z,1.40
2022-12-26T20:49:05.396Z,1.30
2022-12-26T20:51:37.971Z,1.87
2022-12-26T20:54:06.170Z,1.43
2022-12-26T20:56:37.598Z,1.50
2022-12-26T20:59:05.484Z,1.80
2022-12-26T21:01:35.218Z,1.60
2022-12-26T21:04:02.890Z,2.20
2022-12-26T21:06:32.344Z,1.80
2022-12-26T21:09:00.139Z,1.63
2022-12-26T21:11:29.460Z,1.73
2022-12-26T21:13:58.400Z,1.20
2022-12-26T21:16:29.993Z,1.53
2022-12-26T21:18:59.486Z,7.03
2022-12-26T21:21:28.884Z,8.43
2022-12-26T21:23:59.892Z,2.17
2022-12-26T21:26:28.213Z,1.60
2022-12-26T21:28:57.463Z,1.33
2022-12-26T21:31:25.277Z,1.60
2022-12-26T21:33:55.348Z,2.47
2022-12-26T21:36:24.324Z,1.90
2022-12-26T21:38:54.677Z,1.80
2022-12-26T21:41:22.995Z,1.87
2022-12-26T21:43:50.887Z,1.70
2022-12-26T21:46:20.769Z,1.80
2022-12-26T21:48:52.323Z,1.90
2022-12-26T21:51:21.721Z,2.27
2022-12-26T21:53:50.515Z,1.67
2022-12-26T21:56:17.897Z,2.17
2022-12-26T21:59:03.653Z,2.23
2022-12-26T22:01:31.841Z,2.13
2022-12-26T22:04:16.878Z,2.00
2022-12-26T22:06:44.366Z,2.10
2022-12-26T22:09:15.649Z,1.77
2022-12-26T22:12:03.997Z,2.20
2022-12-26T22:14:34.198Z,1.70
2022-12-26T22:17:01.605Z,2.33
2022-12-26T22:19:29.265Z,1.80
2022-12-26T22:21:56.784Z,1.97
2022-12-26T22:24:25.570Z,1.83
2022-12-26T22:26:53.535Z,1.73
2022-12-26T22:29:20.977Z,2.13
2022-12-26T22:31:48.421Z,1.83
2022-12-26T22:34:17.096Z,1.60
2022-12-26T22:36:44.700Z,2.23
2022-12-26T22:39:17.457Z,2.20
2022-12-26T22:41:47.557Z,1.50
2022-12-26T22:44:15.598Z,1.60
2022-12-26T22:46:43.790Z,2.00
2022-12-26T22:49:11.590Z,1.70
2022-12-26T22:51:39.350Z,1.53
2022-12-26T22:54:06.879Z,2.30
2022-12-26T22:56:34.838Z,2.33
2022-12-26T22:59:03.825Z,2.00
2022-12-26T23:01:31.635Z,2.10
2022-12-26T23:04:03.942Z,2.30
2022-12-26T23:06:33.818Z,2.27
2022-12-26T23:09:03.952Z,2.20
2022-12-26T23:11:35.302Z,2.27
2022-12-26T23:14:06.243Z,1.77
2022-12-26T23:16:39.424Z,1.87
2022-12-26T23:19:32.772Z,1.67
2022-12-26T23:22:02.358Z,2.20
2022-12-26T23:24:32.154Z,2.00
2022-12-26T23:27:17.417Z,1.90
2022-12-26T23:30:04.501Z,2.13
2022-12-26T23:32:32.084Z,1.60
2022-12-26T23:34:59.503Z,2.00
2022-12-26T23:37:27.052Z,2.27
2022-12-26T23:39:54.541Z,1.80
2022-12-26T23:42:21.985Z,1.70
2022-12-26T23:44:50.731Z,2.03
2022-12-26T23:47:18.168Z,1.80
2022-12-26T23:49:45.621Z,2.40
2022-12-26T23:52:13.053Z,1.80
2022-12-26T23:54:40.492Z,1.90
2022-12-26T23:57:07.947Z,1.97
2022-12-26T23:59:35.399Z,1.87
